Дождевые леса | Виртуальная фотогалерея /
Альбом

Тропические леса на севере Австралии называются «дождевыми лесами».

«Дождевые леса» растут в зонах с очень влажным и очень теплым климатом (есть специальные граничные нормы среднегодовой температуры и количества осадков, но я их приводить не буду, потому что и сам не помню, и запомнить их вам не удастся). «Джунгли» и «дождевые леса» — не синонимы: джунгли, тоже тропические — леса непроходимые: их нижний растительный ярус переплетен лианами, заполнен папортниками и колючими кустарниками до полной непреодолимости; в дождевых лесах кроны огромных деревьев почти полностью перекрывают свет и под их пологом настолько темно, что солнца не хватает для полноценного роста растений, подлесок беден, а местами вообще отсутствует.

08-RainForest-_MG_4056-abc.jpg: 950x634, 460k (2013-01-07, 19:41)

[url=http://www.tauf.ru/Album/2012-11-xx-Australia-RainForest ]Дождевые леса[/url]
[[http://www.tauf.ru/Album/2012-11-xx-Australia-RainForest  | Дождевые леса ]]

01-RainForest-_MG_4029.jpg www.tauf.ru/uploads/Album/2012-11-xx-Australia-RainForest/01-RainForest-_MG_4029.jpg  : 2012-11-15, 04:55 1/20 f/11.0 ISO400 70/1 Canon EOS 7D
02-RainForest-_MG_4010.jpg www.tauf.ru/uploads/Album/2012-11-xx-Australia-RainForest/02-RainForest-_MG_4010.jpg  : 2012-11-15, 04:48 1/30 f/11.0 ISO400 70/1 Canon EOS 7D
03-RainForest-_MG_4012.jpg www.tauf.ru/uploads/Album/2012-11-xx-Australia-RainForest/03-RainForest-_MG_4012.jpg  : 2012-11-15, 04:49 1/30 f/11.0 ISO400 300/1 Canon EOS 7D
04-RainForest-_MG_4019.jpg www.tauf.ru/uploads/Album/2012-11-xx-Australia-RainForest/04-RainForest-_MG_4019.jpg  : 2012-11-15, 04:52 1/20 f/11.0 ISO400 70/1 Canon EOS 7D
05-RainForest-_MG_4052.jpg www.tauf.ru/uploads/Album/2012-11-xx-Australia-RainForest/05-RainForest-_MG_4052.jpg  : 2012-11-15, 05:06 1/125 f/11.0 ISO400 85/1 Canon EOS 7D
06-RainForest-_MG_4059-61-abc.jpg www.tauf.ru/uploads/Album/2012-11-xx-Australia-RainForest/06-RainForest-_MG_4059-61-abc.jpg  : ISO
07-RainForest-_MG_4054.jpg www.tauf.ru/uploads/Album/2012-11-xx-Australia-RainForest/07-RainForest-_MG_4054.jpg  : 2012-11-15, 05:10 1/60 f/11.0 ISO400 44/1 Canon EOS 7D
08-RainForest-_MG_4056-abc.jpg www.tauf.ru/uploads/Album/2012-11-xx-Australia-RainForest/08-RainForest-_MG_4056-abc.jpg  : 2012-11-15, 05:11 1/30 f/11.0 ISO400 18/1 Canon EOS 7D
09-RainForest-_MG_4085.jpg www.tauf.ru/uploads/Album/2012-11-xx-Australia-RainForest/09-RainForest-_MG_4085.jpg  : 2012-11-15, 05:26 1/45 f/11.0 ISO400 70/1 Canon EOS 7D
10-RainForest-_MG_4099.jpg www.tauf.ru/uploads/Album/2012-11-xx-Australia-RainForest/10-RainForest-_MG_4099.jpg  : 2012-11-15, 05:29 1/45 f/11.0 ISO400 70/1 Canon EOS 7D
11-RainForest-_MG_4142.jpg www.tauf.ru/uploads/Album/2012-11-xx-Australia-RainForest/11-RainForest-_MG_4142.jpg  : 2012-11-15, 05:49 1/20 f/5.6 ISO800 140/1 Canon EOS 7D
12-RainForest-_MG_4159-69-abc.jpg www.tauf.ru/uploads/Album/2012-11-xx-Australia-RainForest/12-RainForest-_MG_4159-69-abc.jpg  : ISO
13-RainForest-_MG_4152.jpg www.tauf.ru/uploads/Album/2012-11-xx-Australia-RainForest/13-RainForest-_MG_4152.jpg  : 2012-11-15, 06:14 1/20 f/5.6 ISO800 75/1 Canon EOS 7D
14-RainForest-_MG_4023.jpg www.tauf.ru/uploads/Album/2012-11-xx-Australia-RainForest/14-RainForest-_MG_4023.jpg  : 2012-11-15, 04:53 1/90 f/11.0 ISO400 75/1 Canon EOS 7D
15-RainForest-_MG_4022.jpg www.tauf.ru/uploads/Album/2012-11-xx-Australia-RainForest/15-RainForest-_MG_4022.jpg  : 2012-11-15, 04:53 1/45 f/11.0 ISO400 150/1 Canon EOS 7D
16-RainForest-_MG_4078.jpg www.tauf.ru/uploads/Album/2012-11-xx-Australia-RainForest/16-RainForest-_MG_4078.jpg  : 2012-11-15, 05:25 1/30 f/11.0 ISO400 220/1 Canon EOS 7D
17-RainForest-_MG_4203.jpg www.tauf.ru/uploads/Album/2012-11-xx-Australia-RainForest/17-RainForest-_MG_4203.jpg  : 2012-11-15, 07:18 1/125 f/4.5 ISO800 70/1 Canon EOS 7D
18-RainForest-_MG_4028.jpg www.tauf.ru/uploads/Album/2012-11-xx-Australia-RainForest/18-RainForest-_MG_4028.jpg  : 2012-11-15, 04:54 1/15 f/11.0 ISO400 70/1 Canon EOS 7D
19-RainForest-_MG_4206.jpg www.tauf.ru/uploads/Album/2012-11-xx-Australia-RainForest/19-RainForest-_MG_4206.jpg  : 2012-11-15, 07:19 1/180 f/4.5 ISO800 95/1 Canon EOS 7D
21-RainForest-_MG_4121.jpg www.tauf.ru/uploads/Album/2012-11-xx-Australia-RainForest/21-RainForest-_MG_4121.jpg  : 1970-01-01, 03:00 1/20 f/4.0 ISO400 70/1 Canon EOS 7D
22-RainForest-_MG_4183.jpg www.tauf.ru/uploads/Album/2012-11-xx-Australia-RainForest/22-RainForest-_MG_4183.jpg  : 2012-11-15, 07:00 1/20 f/9.5 ISO800 130/1 Canon EOS 7D
23-RainForest-_MG_4193.jpg www.tauf.ru/uploads/Album/2012-11-xx-Australia-RainForest/23-RainForest-_MG_4193.jpg  : 2012-11-15, 07:13 1/90 f/4.5 ISO800 120/1 Canon EOS 7D
24-RainForest-_MG_3908.jpg www.tauf.ru/uploads/Album/2012-11-xx-Australia-RainForest/24-RainForest-_MG_3908.jpg  : 2012-11-15, 02:10 1/1000 f/9.5 ISO400 140/1 Canon EOS 7D
25-RainForest-_MG_4223.jpg www.tauf.ru/uploads/Album/2012-11-xx-Australia-RainForest/25-RainForest-_MG_4223.jpg  : 2012-11-15, 07:32 1/750 f/8.0 ISO800 165/1 Canon EOS 7D
26-RainForest-_MG_3916.jpg www.tauf.ru/uploads/Album/2012-11-xx-Australia-RainForest/26-RainForest-_MG_3916.jpg  : 2012-11-15, 02:15 1/350 f/6.7 ISO400 300/1 Canon EOS 7D
27-RainForest-_MG_3917.jpg www.tauf.ru/uploads/Album/2012-11-xx-Australia-RainForest/27-RainForest-_MG_3917.jpg  : 2012-11-15, 02:16 1/500 f/8.0 ISO400 150/1 Canon EOS 7D
28-RainForest-_MG_3920.jpg www.tauf.ru/uploads/Album/2012-11-xx-Australia-RainForest/28-RainForest-_MG_3920.jpg  : 2012-11-15, 02:17 1/350 f/6.7 ISO400 70/1 Canon EOS 7D
29-RainForest-_MG_3986.jpg www.tauf.ru/uploads/Album/2012-11-xx-Australia-RainForest/29-RainForest-_MG_3986.jpg  : 2012-11-15, 02:23 1/1000 f/11.0 ISO400 300/1 Canon EOS 7D
31-RainForest-_MG_3995.jpg www.tauf.ru/uploads/Album/2012-11-xx-Australia-RainForest/31-RainForest-_MG_3995.jpg  : 2012-11-15, 02:23 1/750 f/9.5 ISO400 300/1 Canon EOS 7D
32-RainForest-_MG_3998.jpg www.tauf.ru/uploads/Album/2012-11-xx-Australia-RainForest/32-RainForest-_MG_3998.jpg  : 2012-11-15, 02:23 1/750 f/9.5 ISO400 300/1 Canon EOS 7D
33-RainForest-_MG_4002.jpg www.tauf.ru/uploads/Album/2012-11-xx-Australia-RainForest/33-RainForest-_MG_4002.jpg  : 2012-11-15, 02:24 1/1000 f/9.5 ISO400 300/1 Canon EOS 7D
35-RainForest-_MG_3962.jpg www.tauf.ru/uploads/Album/2012-11-xx-Australia-RainForest/35-RainForest-_MG_3962.jpg  : 2012-11-15, 02:21 1/750 f/8.0 ISO400 300/1 Canon EOS 7D
36-RainForest-_MG_4218.jpg www.tauf.ru/uploads/Album/2012-11-xx-Australia-RainForest/36-RainForest-_MG_4218.jpg  : 2012-11-15, 07:29 1/500 f/6.7 ISO800 165/1 Canon EOS 7D
37-RainForest-_MG_4212.jpg www.tauf.ru/uploads/Album/2012-11-xx-Australia-RainForest/37-RainForest-_MG_4212.jpg  : 2012-11-15, 07:29 1/500 f/6.7 ISO800 165/1 Canon EOS 7D
38-RainForest-_MG_3912.jpg www.tauf.ru/uploads/Album/2012-11-xx-Australia-RainForest/38-RainForest-_MG_3912.jpg  : 2012-11-15, 02:11 1/350 f/6.7 ISO400 300/1 Canon EOS 7D
39-RainForest-_MG_4210.jpg www.tauf.ru/uploads/Album/2012-11-xx-Australia-RainForest/39-RainForest-_MG_4210.jpg  : 2012-11-15, 07:22 1/250 f/5.6 ISO800 110/1 Canon EOS 7D
40-RainForest-_MG_4200.jpg www.tauf.ru/uploads/Album/2012-11-xx-Australia-RainForest/40-RainForest-_MG_4200.jpg  : 2012-11-15, 07:14 1/250 f/5.6 ISO800 275/1 Canon EOS 7D
41-RainForest-_MG_4202-abc.jpg www.tauf.ru/uploads/Album/2012-11-xx-Australia-RainForest/41-RainForest-_MG_4202-abc.jpg  : 2012-11-15, 07:14 1/180 f/5.6 ISO800 300/1 Canon EOS 7D

Комментировать


Ваше имя:
->

>>

Все альбомы

Навигация